Time;durP1;ratioP1;P1;durP2;ratioP2;P2;SDS_P1;SDS_P2;PMS_P1;PMS_P2;Temp;Humidity;BMP_temperature;BMP_pressure;BME280_temperature;BME280_humidity;BME280_pressure;Samples;Min_cycle;Max_cycle;Signal;HPM_P1;HPM_P2
2022/11/29 00:01:35;;;;;;;;;;;;;;;1.31;100.00;101060.91;5589858;31;34447;-71
2022/11/29 00:04:42;;;;;;;;;;;;;;;1.21;100.00;101059.78;5589755;31;35186;-71
2022/11/29 00:07:48;;;;;;;;;;;;;;;1.26;100.00;101052.50;5576599;31;34516;-72
2022/11/29 00:10:56;;;;;;;;;;;;;;;1.30;100.00;101046.19;5575318;31;34357;-72
2022/11/29 00:14:03;;;;;;;;;;;;;;;1.31;100.00;101053.06;5589740;31;35130;-72
2022/11/29 00:17:11;;;;;;;;;;;;;;;1.45;100.00;101059.25;5589482;31;35137;-72
2022/11/29 00:20:17;;;;;;;;;;;;;;;1.16;100.00;101046.16;5575725;31;34501;-71
2022/11/29 00:23:24;;;;;;;;;;;;;;;1.20;100.00;101042.44;5589124;31;34574;-72
2022/11/29 00:26:30;;;;;;;;;;;;;;;1.21;100.00;101044.09;5589585;31;35212;-72
2022/11/29 00:29:41;;;;;;;;;;;;;;;1.09;100.00;101039.63;5576490;31;34534;-72
2022/11/29 00:32:48;;;;;;;;;;;;;;;1.17;100.00;101034.75;5589464;31;35222;-72
2022/11/29 00:35:59;;;;;;;;;;;;;;;1.23;100.00;101038.78;5589391;31;34537;-72
2022/11/29 00:39:05;;;;;;;;;;;;;;;1.19;100.00;101026.84;5589364;31;34422;-71
2022/11/29 00:42:11;;;;;;;;;;;;;;;1.22;100.00;101030.09;5589225;31;34953;-71
2022/11/29 00:45:19;;;;;;;;;;;;;;;1.04;100.00;101027.75;5589323;31;34607;-71
2022/11/29 00:48:28;;;;;;;;;;;;;;;1.19;100.00;101027.69;5576319;31;34961;-72
2022/11/29 00:51:37;;;;;;;;;;;;;;;1.22;100.00;101026.66;5575511;31;34814;-72
2022/11/29 00:54:46;;;;;;;;;;;;;;;1.09;100.00;101026.56;5589559;31;34658;-72
2022/11/29 00:57:56;;;;;;;;;;;;;;;1.21;100.00;101022.38;5589079;31;34698;-72
2022/11/29 01:01:04;;;;;;;;;;;;;;;1.14;100.00;101016.66;5589004;31;34941;-72
2022/11/29 01:04:11;;;;;;;;;;;;;;;1.17;100.00;101013.84;5562583;31;34267;-71
2022/11/29 01:07:19;;;;;;;;;;;;;;;1.16;100.00;101020.00;5575594;31;35020;-71
2022/11/29 01:10:26;;;;;;;;;;;;;;;1.30;100.00;101019.19;5575338;31;35234;-71
2022/11/29 01:13:33;;;;;;;;;;;;;;;1.35;100.00;101013.69;5575422;31;35283;-71
2022/11/29 01:16:39;;;;;;;;;;;;;;;1.35;100.00;101009.31;5562140;31;34806;-71
2022/11/29 01:19:46;;;;;;;;;;;;;;;1.31;100.00;101011.25;5575607;31;34546;-71
2022/11/29 01:22:56;;;;;;;;;;;;;;;1.28;100.00;101014.06;5588656;31;35200;-71
2022/11/29 01:26:08;;;;;;;;;;;;;;;1.03;100.00;101008.62;5588704;31;34488;-71
2022/11/29 01:29:14;;;;;;;;;;;;;;;1.03;100.00;101013.00;5588396;31;34567;-71
2022/11/29 01:32:22;;;;;;;;;;;;;;;1.09;100.00;101015.25;5575377;31;34530;-71
2022/11/29 01:35:30;;;;;;;;;;;;;;;0.87;100.00;101007.88;5590926;31;35261;-71
2022/11/29 01:38:38;;;;;;;;;;;;;;;0.96;100.00;101006.47;5591094;31;35158;-71
2022/11/29 01:41:46;;;;;;;;;;;;;;;1.07;100.00;101012.72;5577856;31;34365;-71
2022/11/29 01:45:15;;;;;;;;;;;;;;;0.93;100.00;101004.88;5591106;31;34577;-71
2022/11/29 01:48:26;;;;;;;;;;;;;;;0.91;100.00;101009.38;5591103;31;33587;-70
2022/11/29 01:51:38;;;;;;;;;;;;;;;0.88;100.00;101007.75;5591117;31;34924;-71
2022/11/29 01:54:48;;;;;;;;;;;;;;;0.76;100.00;101013.72;5590971;31;34881;-71
2022/11/29 01:58:00;;;;;;;;;;;;;;;0.91;100.00;101013.75;5576781;31;35177;-71
2022/11/29 02:01:06;;;;;;;;;;;;;;;0.88;100.00;101015.59;5577442;31;34383;-71
2022/11/29 02:04:14;;;;;;;;;;;;;;;0.72;100.00;101019.22;5590882;31;34853;-71
2022/11/29 02:07:22;;;;;;;;;;;;;;;0.88;100.00;101010.37;5590846;31;34674;-71
2022/11/29 02:10:44;;;;;;;;;;;;;;;0.66;100.00;101007.34;5590670;31;34572;-71
2022/11/29 02:14:03;;;;;;;;;;;;;;;0.62;100.00;101013.69;5577714;31;34510;-71
2022/11/29 02:17:28;;;;;;;;;;;;;;;0.74;100.00;101012.12;5590557;31;34421;-71
2022/11/29 02:20:40;;;;;;;;;;;;;;;0.63;100.00;101001.47;5577640;31;35177;-71
2022/11/29 02:24:04;;;;;;;;;;;;;;;0.59;100.00;101016.47;5576951;31;34525;-71
2022/11/29 02:27:22;;;;;;;;;;;;;;;0.71;100.00;101017.53;5590740;31;34427;-71
2022/11/29 02:30:31;;;;;;;;;;;;;;;0.69;100.00;101022.84;5590650;31;34430;-71
2022/11/29 02:33:44;;;;;;;;;;;;;;;0.79;100.00;101028.34;5590601;31;34882;-71
2022/11/29 02:37:04;;;;;;;;;;;;;;;0.90;100.00;101027.72;5577468;31;34380;-71
2022/11/29 02:40:32;;;;;;;;;;;;;;;0.83;100.00;101040.31;5590513;31;35165;-70
2022/11/29 02:43:36;;;;;;;;;;;;;;;0.80;100.00;101024.81;5576921;31;35176;-71
2022/11/29 02:46:53;;;;;;;;;;;;;;;0.82;100.00;101026.41;5576384;31;34498;-72
2022/11/29 02:50:10;;;;;;;;;;;;;;;0.75;100.00;101025.09;5590417;31;35127;-72
2022/11/29 02:53:37;;;;;;;;;;;;;;;0.82;100.00;101026.41;5590474;31;34480;-72
2022/11/29 02:56:46;;;;;;;;;;;;;;;0.78;100.00;101027.50;5590406;31;35053;-71
2022/11/29 02:59:59;;;;;;;;;;;;;;;0.66;100.00;101033.47;5576819;31;34507;-72
2022/11/29 03:03:14;;;;;;;;;;;;;;;0.46;100.00;101025.09;5590690;31;35274;-72
2022/11/29 03:06:26;;;;;;;;;;;;;;;0.40;100.00;101027.13;5590248;31;34577;-72
2022/11/29 03:09:33;;;;;;;;;;;;;;;0.42;100.00;101032.25;5590201;31;34706;-71
2022/11/29 03:12:45;;;;;;;;;;;;;;;0.34;100.00;101026.63;5590293;31;35165;-72
2022/11/29 03:16:08;;;;;;;;;;;;;;;0.49;100.00;101023.13;5577148;31;34608;-72
2022/11/29 03:19:22;;;;;;;;;;;;;;;0.58;100.00;101035.66;5590161;31;34620;-71
2022/11/29 03:22:29;;;;;;;;;;;;;;;0.56;100.00;101032.31;5576795;31;35062;-71
2022/11/29 03:25:43;;;;;;;;;;;;;;;0.53;100.00;101036.87;5577021;31;34563;-71
2022/11/29 03:28:53;;;;;;;;;;;;;;;0.56;100.00;101034.06;5564180;31;34549;-71
2022/11/29 03:32:08;;;;;;;;;;;;;;;0.58;100.00;101027.81;5590155;31;34653;-71
2022/11/29 03:35:19;;;;;;;;;;;;;;;0.47;100.00;101034.59;5590046;31;35043;-71
2022/11/29 03:38:42;;;;;;;;;;;;;;;0.49;100.00;101035.34;5590117;31;34462;-71
2022/11/29 03:41:50;;;;;;;;;;;;;;;0.53;100.00;101035.09;5576615;31;34608;-71
2022/11/29 03:45:06;;;;;;;;;;;;;;;0.55;100.00;101037.63;5576602;31;34535;-71
2022/11/29 03:48:18;;;;;;;;;;;;;;;0.58;100.00;101042.69;5589969;31;34601;-71
2022/11/29 03:51:27;;;;;;;;;;;;;;;0.46;100.00;101033.75;5589824;31;35214;-72
2022/11/29 03:54:48;;;;;;;;;;;;;;;0.49;100.00;101038.78;5576799;31;35154;-71
2022/11/29 03:58:19;;;;;;;;;;;;;;;0.52;100.00;101043.03;5589181;31;34818;-72
2022/11/29 04:01:49;;;;;;;;;;;;;;;0.51;100.00;101049.16;5589836;31;35005;-71
2022/11/29 04:05:26;;;;;;;;;;;;;;;0.54;100.00;101055.03;5589766;31;34551;-71
2022/11/29 04:08:38;;;;;;;;;;;;;;;0.41;100.00;101048.84;5568635;31;35034;-71
2022/11/29 04:11:54;;;;;;;;;;;;;;;0.49;100.00;101054.47;5589651;31;34451;-71
2022/11/29 04:15:19;;;;;;;;;;;;;;;0.51;100.00;101060.44;5562712;31;35250;-71
2022/11/29 04:18:32;;;;;;;;;;;;;;;0.57;100.00;101061.88;5576639;31;35137;-71
2022/11/29 04:21:48;;;;;;;;;;;;;;;0.51;100.00;101059.59;5576386;31;34506;-71
2022/11/29 04:24:56;;;;;;;;;;;;;;;0.50;100.00;101058.75;5589606;31;34938;-71
2022/11/29 04:28:06;;;;;;;;;;;;;;;0.52;100.00;101071.72;5589425;31;34465;-71
2022/11/29 04:31:37;;;;;;;;;;;;;;;0.56;100.00;101071.47;5589338;31;34398;-71
2022/11/29 04:35:03;;;;;;;;;;;;;;;0.35;100.00;101065.69;5589422;31;35029;-71
2022/11/29 04:38:14;;;;;;;;;;;;;;;0.34;100.00;101053.56;5576185;31;34433;-71
2022/11/29 04:41:25;;;;;;;;;;;;;;;0.40;100.00;101065.44;5576041;31;35247;-71
2022/11/29 04:44:50;;;;;;;;;;;;;;;0.16;100.00;101061.56;5589773;31;34434;-72
2022/11/29 04:48:18;;;;;;;;;;;;;;;0.21;100.00;101060.41;5589372;31;34490;-71
2022/11/29 04:51:29;;;;;;;;;;;;;;;0.14;100.00;101064.28;5575329;31;34453;-71
2022/11/29 04:54:35;;;;;;;;;;;;;;;0.11;100.00;101072.25;5589097;31;34960;-70
2022/11/29 04:57:49;;;;;;;;;;;;;;;0.21;100.00;101072.59;5574988;31;35793;-71
2022/11/29 05:00:56;;;;;;;;;;;;;;;0.09;100.00;101079.34;5588977;31;34556;-70
2022/11/29 05:04:11;;;;;;;;;;;;;;;0.09;100.00;101079.34;5589002;31;34487;-70
2022/11/29 05:07:26;;;;;;;;;;;;;;;0.05;100.00;101082.22;5588980;31;34558;-70
2022/11/29 05:10:46;;;;;;;;;;;;;;;0.04;100.00;101085.75;5577690;31;34512;-71
2022/11/29 05:14:00;;;;;;;;;;;;;;;0.08;100.00;101087.25;5564692;31;35496;-70
2022/11/29 05:17:18;;;;;;;;;;;;;;;0.10;100.00;101090.63;5591144;31;35013;-71
2022/11/29 05:20:42;;;;;;;;;;;;;;;0.13;100.00;101095.66;5591253;31;34525;-70
2022/11/29 05:23:52;;;;;;;;;;;;;;;0.06;100.00;101091.69;5591574;31;34750;-70
2022/11/29 05:26:58;;;;;;;;;;;;;;;0.10;100.00;101091.44;5591158;31;34958;-71
2022/11/29 05:30:14;;;;;;;;;;;;;;;0.14;100.00;101095.59;5591016;31;34541;-71
2022/11/29 05:33:22;;;;;;;;;;;;;;;0.04;100.00;101093.56;5591071;31;35087;-70
2022/11/29 05:36:38;;;;;;;;;;;;;;;0.12;100.00;101097.44;5591040;31;34863;-70
2022/11/29 05:39:56;;;;;;;;;;;;;;;0.16;100.00;101093.72;5576816;31;34196;-71
2022/11/29 05:43:39;;;;;;;;;;;;;;;0.04;100.00;101088.34;5577084;31;35416;-71
2022/11/29 05:46:55;;;;;;;;;;;;;;;0.08;100.00;101102.91;5511206;32;35059;-71
2022/11/29 05:50:02;;;;;;;;;;;;;;;0.00;100.00;101098.94;5511424;32;33977;-71
2022/11/29 05:53:30;;;;;;;;;;;;;;;0.08;100.00;101100.28;5511490;32;35113;-71
2022/11/29 05:56:46;;;;;;;;;;;;;;;0.04;100.00;101099.62;5493069;32;35507;-73
2022/11/29 05:59:52;;;;;;;;;;;;;;;0.15;100.00;101099.03;5511054;32;34536;-71
2022/11/29 06:03:13;;;;;;;;;;;;;;;0.22;100.00;101098.63;5511267;32;34542;-71
2022/11/29 06:06:26;;;;;;;;;;;;;;;0.31;100.00;101102.47;5511111;32;34425;-71
2022/11/29 06:09:49;;;;;;;;;;;;;;;0.12;100.00;101109.62;5511449;32;35001;-71
2022/11/29 06:13:11;;;;;;;;;;;;;;;0.02;100.00;101116.28;5510905;32;34403;-71
2022/11/29 06:16:19;;;;;;;;;;;;;;;0.02;100.00;101117.12;5510929;32;34515;-70
2022/11/29 06:19:31;;;;;;;;;;;;;;;-0.03;100.00;101119.97;5510746;31;34824;-70
2022/11/29 06:22:45;;;;;;;;;;;;;;;-0.07;100.00;101121.06;5590935;31;35060;-70
2022/11/29 06:25:59;;;;;;;;;;;;;;;-0.05;100.00;101128.81;5590673;31;34419;-70
2022/11/29 06:29:24;;;;;;;;;;;;;;;-0.06;100.00;101121.91;5590381;31;34526;-70
2022/11/29 06:32:33;;;;;;;;;;;;;;;0.00;100.00;101119.78;5590320;31;34607;-71
2022/11/29 06:35:45;;;;;;;;;;;;;;;0.03;100.00;101128.41;5576943;31;34517;-71
2022/11/29 06:38:49;;;;;;;;;;;;;;;0.19;100.00;101126.66;5576966;31;34945;-71
2022/11/29 06:41:52;;;;;;;;;;;;;;;0.30;100.00;101132.09;5576262;31;33545;-71
2022/11/29 06:44:58;;;;;;;;;;;;;;;0.30;100.00;101134.72;5576164;31;34597;-72
2022/11/29 06:48:08;;;;;;;;;;;;;;;0.29;100.00;101133.88;5590064;31;35283;-73
2022/11/29 06:51:21;;;;;;;;;;;;;;;0.30;100.00;101134.72;5563275;31;34812;-73
2022/11/29 06:54:25;;;;;;;;;;;;;;;0.22;100.00;101135.16;5590183;31;35212;-72
2022/11/29 06:57:33;;;;;;;;;;;;;;;0.16;100.00;101132.88;5589831;31;34429;-73
2022/11/29 07:00:47;;;;;;;;;;;;;;;0.25;100.00;101134.97;5589872;31;34711;-72
2022/11/29 07:03:57;;;;;;;;;;;;;;;0.25;100.00;101129.75;5590074;31;34370;-72
2022/11/29 07:07:02;;;;;;;;;;;;;;;0.25;100.00;101140.19;5575944;31;34936;-72
2022/11/29 07:10:12;;;;;;;;;;;;;;;0.43;100.00;101139.19;5589053;31;34449;-74
2022/11/29 07:13:17;;;;;;;;;;;;;;;0.61;100.00;101142.53;5590329;31;35098;-72
2022/11/29 07:16:40;;;;;;;;;;;;;;;0.64;100.00;101139.75;5590125;31;35127;-70
2022/11/29 07:19:44;;;;;;;;;;;;;;;0.74;100.00;101143.53;5576349;31;34440;-72
2022/11/29 07:22:55;;;;;;;;;;;;;;;0.57;100.00;101143.66;5575979;31;33266;-72
2022/11/29 07:26:01;;;;;;;;;;;;;;;0.61;100.00;101149.53;5590112;31;34402;-71
2022/11/29 07:29:15;;;;;;;;;;;;;;;0.81;100.00;101149.25;5589886;31;35106;-71
2022/11/29 07:32:38;;;;;;;;;;;;;;;0.47;100.00;101147.69;5561952;31;34450;-70
2022/11/29 07:35:53;;;;;;;;;;;;;;;0.30;100.00;101142.53;5589951;31;34497;-71
2022/11/29 07:39:13;;;;;;;;;;;;;;;0.21;100.00;101138.69;5589771;31;35124;-72
2022/11/29 07:42:30;;;;;;;;;;;;;;;0.39;100.00;101144.66;5589605;31;35048;-70
2022/11/29 07:45:37;;;;;;;;;;;;;;;0.22;100.00;101156.03;5590051;31;34424;-72
2022/11/29 07:48:42;;;;;;;;;;;;;;;0.39;100.00;101158.53;5589925;31;35146;-73
2022/11/29 07:51:46;;;;;;;;;;;;;;;0.50;100.00;101154.50;5589760;31;34591;-72
2022/11/29 07:54:52;;;;;;;;;;;;;;;0.62;100.00;101152.06;5576691;31;34500;-71
2022/11/29 07:57:56;;;;;;;;;;;;;;;0.57;100.00;101146.25;5590049;31;34537;-71
2022/11/29 08:01:00;;;;;;;;;;;;;;;0.70;100.00;101154.25;5575520;31;33273;-72
2022/11/29 08:04:06;;;;;;;;;;;;;;;0.86;100.00;101157.69;5563246;31;34423;-71
2022/11/29 08:07:12;;;;;;;;;;;;;;;0.84;100.00;101165.59;5589618;31;34367;-71
2022/11/29 08:10:17;;;;;;;;;;;;;;;0.94;100.00;101158.06;5589840;31;35159;-72
2022/11/29 08:13:21;;;;;;;;;;;;;;;0.77;100.00;101159.06;5576062;31;34513;-71
2022/11/29 08:16:25;;;;;;;;;;;;;;;0.60;100.00;101153.91;5589896;31;35118;-71
2022/11/29 08:19:28;;;;;;;;;;;;;;;0.55;100.00;101155.09;5575589;31;34851;-72
2022/11/29 08:22:32;;;;;;;;;;;;;;;0.68;100.00;101148.25;5589463;31;35203;-72
2022/11/29 08:25:35;;;;;;;;;;;;;;;0.68;100.00;101156.09;5575989;31;34120;-72
2022/11/29 08:28:39;;;;;;;;;;;;;;;0.79;100.00;101154.56;5575283;31;34810;-72
2022/11/29 08:31:43;;;;;;;;;;;;;;;0.90;100.00;101150.50;5589479;31;34842;-72
2022/11/29 08:34:47;;;;;;;;;;;;;;;0.74;100.00;101156.59;5589346;31;34424;-71
2022/11/29 08:37:52;;;;;;;;;;;;;;;1.11;100.00;101160.59;5589302;31;35134;-72
2022/11/29 08:41:01;;;;;;;;;;;;;;;1.00;100.00;101162.97;5589501;31;35174;-73
2022/11/29 08:44:04;;;;;;;;;;;;;;;0.93;100.00;101161.59;5574791;31;34284;-71
2022/11/29 08:50:34;;;;;;;;;;;;;;;0.90;100.00;101174.00;5589080;31;34536;-71
2022/11/29 08:53:42;;;;;;;;;;;;;;;1.04;100.00;101166.22;5562364;31;35451;-71
2022/11/29 08:56:46;;;;;;;;;;;;;;;1.43;100.00;101163.91;5588798;31;34633;-71
2022/11/29 09:00:11;;;;;;;;;;;;;;;1.02;100.00;101165.47;5577498;31;35113;-71
2022/11/29 09:06:41;;;;;;;;;;;;;;;0.92;100.00;101164.34;5588652;31;34490;-71
2022/11/29 09:09:44;;;;;;;;;;;;;;;1.11;100.00;101163.19;5575225;31;34854;-72
2022/11/29 09:12:51;;;;;;;;;;;;;;;1.22;100.00;101158.16;5574879;31;34530;-72
2022/11/29 09:15:56;;;;;;;;;;;;;;;1.17;100.00;101161.97;5588811;31;34512;-72
2022/11/29 09:19:00;;;;;;;;;;;;;;;1.00;100.00;101156.88;5574298;31;34379;-70
2022/11/29 09:22:04;;;;;;;;;;;;;;;0.84;100.00;101154.31;5574297;31;34667;-70
2022/11/29 09:25:09;;;;;;;;;;;;;;;0.71;100.00;101153.31;5588945;31;34545;-71
2022/11/29 09:28:13;;;;;;;;;;;;;;;0.87;100.00;101154.16;5588265;31;35173;-70
2022/11/29 09:31:16;;;;;;;;;;;;;;;0.78;100.00;101147.66;5574302;31;32859;-71
2022/11/29 09:34:22;;;;;;;;;;;;;;;0.76;100.00;101146.91;5588352;31;35200;-71
2022/11/29 09:37:27;;;;;;;;;;;;;;;0.74;100.00;101148.75;5588422;31;35080;-72
2022/11/29 09:40:37;;;;;;;;;;;;;;;0.73;100.00;101154.91;5561220;31;34984;-71
2022/11/29 09:43:59;;;;;;;;;;;;;;;0.84;100.00;101151.69;5587674;31;34578;-71
2022/11/29 09:47:12;;;;;;;;;;;;;;;0.80;100.00;101148.41;5588149;31;34517;-71
2022/11/29 09:50:15;;;;;;;;;;;;;;;0.94;100.00;101146.78;5588092;31;35087;-71
2022/11/29 09:53:30;;;;;;;;;;;;;;;1.16;100.00;101148.06;5586994;31;34704;-71
2022/11/29 09:56:37;;;;;;;;;;;;;;;0.94;100.00;101144.16;5590408;31;34839;-72
2022/11/29 09:59:43;;;;;;;;;;;;;;;0.98;100.00;101140.44;5576697;31;34647;-72
2022/11/29 10:03:00;;;;;;;;;;;;;;;0.92;100.00;101140.81;5576256;31;35237;-72
2022/11/29 10:06:13;;;;;;;;;;;;;;;1.01;100.00;101137.69;5590971;31;34640;-72
2022/11/29 10:09:21;;;;;;;;;;;;;;;1.44;100.00;101136.84;5590634;31;35087;-72
2022/11/29 10:12:37;;;;;;;;;;;;;;;1.41;100.00;101131.78;5590149;31;34971;-71
2022/11/29 10:15:43;;;;;;;;;;;;;;;1.44;100.00;101125.53;5576425;31;34941;-71
2022/11/29 10:18:53;;;;;;;;;;;;;;;1.43;100.00;101118.63;5590438;31;35210;-71
2022/11/29 10:22:26;;;;;;;;;;;;;;;1.24;100.00;101106.66;5576541;31;34807;-71
2022/11/29 10:25:33;;;;;;;;;;;;;;;1.68;100.00;101111.84;5577905;31;35095;-72
2022/11/29 10:28:36;;;;;;;;;;;;;;;1.75;100.00;101107.06;5590207;31;34553;-72
2022/11/29 10:31:42;;;;;;;;;;;;;;;1.93;100.00;101119.03;5590308;31;35119;-71
2022/11/29 10:34:47;;;;;;;;;;;;;;;1.86;100.00;101117.72;5591461;31;34592;-71
2022/11/29 10:37:53;;;;;;;;;;;;;;;1.95;100.00;101116.28;5591476;31;34571;-71
2022/11/29 10:41:21;;;;;;;;;;;;;;;1.42;100.00;101115.16;5590808;31;34978;-72
2022/11/29 10:44:26;;;;;;;;;;;;;;;1.72;100.00;101109.88;5590435;31;34512;-72
2022/11/29 10:47:31;;;;;;;;;;;;;;;1.93;100.00;101105.94;5590504;31;34946;-72
2022/11/29 10:50:35;;;;;;;;;;;;;;;2.05;100.00;101099.94;5576581;31;33364;-72
2022/11/29 10:53:39;;;;;;;;;;;;;;;1.96;100.00;101105.75;5590432;31;34535;-73
2022/11/29 10:56:44;;;;;;;;;;;;;;;1.92;100.00;101098.19;5576689;31;35580;-71
2022/11/29 11:00:03;;;;;;;;;;;;;;;1.74;100.00;101094.94;5576931;31;34142;-74
2022/11/29 11:03:15;;;;;;;;;;;;;;;1.88;100.00;101099.31;5590608;31;34459;-73
2022/11/29 11:06:19;;;;;;;;;;;;;;;1.87;100.00;101101.09;5576947;31;35100;-72
2022/11/29 11:09:41;;;;;;;;;;;;;;;1.86;100.00;101094.16;5565038;31;35433;-72
2022/11/29 11:12:59;;;;;;;;;;;;;;;1.48;100.00;101091.28;5576227;31;34463;-71
2022/11/29 11:16:16;;;;;;;;;;;;;;;1.50;100.00;101097.25;5576347;31;35005;-71
2022/11/29 11:19:20;;;;;;;;;;;;;;;1.57;100.00;101092.50;5567881;32;34618;-71
2022/11/29 11:22:25;;;;;;;;;;;;;;;1.88;100.00;101096.69;5569830;32;34593;-71
2022/11/29 11:25:36;;;;;;;;;;;;;;;1.83;100.00;101098.75;5569237;32;33635;-71
2022/11/29 11:28:48;;;;;;;;;;;;;;;1.98;100.00;101097.81;5569393;32;33271;-71
2022/11/29 11:31:56;;;;;;;;;;;;;;;1.97;100.00;101085.66;5569923;32;34325;-72
2022/11/29 11:35:00;;;;;;;;;;;;;;;1.82;100.00;101090.06;5569503;32;33090;-73
2022/11/29 11:38:04;;;;;;;;;;;;;;;2.04;100.00;101097.41;5570402;32;34913;-72
2022/11/29 11:45:01;;;;;;;;;;;;;;;2.08;100.00;101097.13;5555184;31;35022;-71
2022/11/29 11:48:13;;;;;;;;;;;;;;;2.11;100.00;101089.09;5570069;32;34559;-73
2022/11/29 11:51:21;;;;;;;;;;;;;;;2.03;100.00;101091.31;5571217;32;33743;-71
2022/11/29 11:54:27;;;;;;;;;;;;;;;2.18;100.00;101092.97;5569282;32;35349;-72
2022/11/29 11:57:30;;;;;;;;;;;;;;;2.26;100.00;101096.91;5569272;32;35274;-72
2022/11/29 12:00:39;;;;;;;;;;;;;;;2.08;100.00;101093.69;5570092;32;35072;-71
2022/11/29 12:04:19;;;;;;;;;;;;;;;1.97;100.00;101086.50;5569839;32;35066;-71
2022/11/29 12:07:42;;;;;;;;;;;;;;;1.81;100.00;101091.00;5570039;32;34480;-71
2022/11/29 12:11:08;;;;;;;;;;;;;;;1.85;100.00;101095.09;5570401;32;35125;-71
2022/11/29 12:14:23;;;;;;;;;;;;;;;1.80;100.00;101096.31;5543841;32;837585;-72
2022/11/29 12:17:39;;;;;;;;;;;;;;;1.81;100.00;101095.38;5569314;32;34511;-71
2022/11/29 12:20:48;;;;;;;;;;;;;;;1.84;100.00;101090.78;5549885;32;32802;-72
2022/11/29 12:23:57;;;;;;;;;;;;;;;1.81;100.00;101096.22;5550334;32;35034;-71
2022/11/29 12:27:04;;;;;;;;;;;;;;;1.64;100.00;101086.81;5550735;32;34432;-71
2022/11/29 12:30:11;;;;;;;;;;;;;;;1.83;100.00;101085.66;5550477;32;34528;-72
2022/11/29 12:33:31;;;;;;;;;;;;;;;1.73;100.00;101082.78;5549960;32;34482;-71
2022/11/29 12:36:37;;;;;;;;;;;;;;;1.69;100.00;101076.88;5536964;32;34587;-70
2022/11/29 12:39:47;;;;;;;;;;;;;;;1.96;100.00;101070.87;5549231;32;35083;-71
2022/11/29 12:43:09;;;;;;;;;;;;;;;1.92;100.00;101074.63;5549417;32;34385;-71
2022/11/29 12:46:26;;;;;;;;;;;;;;;1.95;100.00;101071.81;5550095;32;34767;-71
2022/11/29 12:49:53;;;;;;;;;;;;;;;1.98;100.00;101074.25;5549345;32;35224;-71
2022/11/29 12:53:01;;;;;;;;;;;;;;;2.02;100.00;101071.34;5544058;32;34913;-71
2022/11/29 12:56:22;;;;;;;;;;;;;;;2.12;100.00;101072.44;5550436;32;34429;-72
2022/11/29 12:59:25;;;;;;;;;;;;;;;2.11;100.00;101072.53;5549999;32;34378;-71
2022/11/29 13:02:34;;;;;;;;;;;;;;;2.00;100.00;101078.44;5549374;32;33020;-70
2022/11/29 13:05:36;;;;;;;;;;;;;;;2.29;100.00;101078.38;5550032;32;34425;-71
2022/11/29 13:08:52;;;;;;;;;;;;;;;2.26;100.00;101071.56;5549825;32;34546;-71
2022/11/29 13:12:21;;;;;;;;;;;;;;;2.23;100.00;101076.16;5548984;32;34878;-71
2022/11/29 13:15:36;;;;;;;;;;;;;;;2.27;100.00;101078.50;5531936;32;34911;-71
2022/11/29 13:18:42;;;;;;;;;;;;;;;2.24;100.00;101067.34;5555803;32;34879;-71
2022/11/29 13:21:51;;;;;;;;;;;;;;;2.39;100.00;101063.75;5568985;32;34350;-70
2022/11/29 13:25:00;;;;;;;;;;;;;;;2.49;100.00;101068.31;5568803;32;34623;-71
2022/11/29 13:28:21;;;;;;;;;;;;;;;2.40;100.00;101068.06;5568022;32;34939;-71
2022/11/29 13:31:24;;;;;;;;;;;;;;;2.28;100.00;101074.06;5571032;32;35085;-70
2022/11/29 13:34:35;;;;;;;;;;;;;;;2.24;100.00;101075.22;5571446;32;34550;-70
2022/11/29 13:37:56;;;;;;;;;;;;;;;2.44;100.00;101069.53;5557700;32;34586;-71
2022/11/29 13:41:25;;;;;;;;;;;;;;;2.25;100.00;101062.03;5571652;32;35199;-71
2022/11/29 13:44:47;;;;;;;;;;;;;;;2.10;100.00;101070.84;5570511;32;34722;-71
2022/11/29 13:47:51;;;;;;;;;;;;;;;2.13;100.00;101070.69;5571333;32;35232;-70
2022/11/29 13:50:57;;;;;;;;;;;;;;;2.21;100.00;101071.03;5571244;32;35091;-71
2022/11/29 13:54:01;;;;;;;;;;;;;;;2.13;100.00;101074.09;5570210;32;35186;-71
2022/11/29 13:57:06;;;;;;;;;;;;;;;2.21;100.00;101068.41;5571378;32;34485;-71
2022/11/29 14:00:26;;;;;;;;;;;;;;;2.29;100.00;101070.53;5571280;32;34617;-71
2022/11/29 14:03:37;;;;;;;;;;;;;;;2.46;100.00;101067.69;5570291;32;33666;-71
2022/11/29 14:06:42;;;;;;;;;;;;;;;2.47;100.00;101074.59;5571384;32;34764;-70
2022/11/29 14:10:15;;;;;;;;;;;;;;;2.40;100.00;101078.53;5571114;32;35004;-71
2022/11/29 14:13:36;;;;;;;;;;;;;;;2.51;100.00;101079.53;5571002;32;35149;-70
2022/11/29 14:16:43;;;;;;;;;;;;;;;2.52;100.00;101075.94;5571013;32;34571;-71
2022/11/29 14:19:49;;;;;;;;;;;;;;;2.57;100.00;101070.41;5569903;32;35041;-70
2022/11/29 14:23:03;;;;;;;;;;;;;;;2.41;100.00;101073.22;5571279;32;34448;-71
2022/11/29 14:26:09;;;;;;;;;;;;;;;2.45;100.00;101073.84;5570244;32;33919;-71
2022/11/29 14:29:32;;;;;;;;;;;;;;;2.45;100.00;101071.22;5569969;32;34441;-70
2022/11/29 14:32:36;;;;;;;;;;;;;;;2.33;100.00;101074.63;5570807;32;34684;-71
2022/11/29 14:35:55;;;;;;;;;;;;;;;2.18;100.00;101064.19;5570803;32;34425;-71
2022/11/29 14:39:17;;;;;;;;;;;;;;;2.28;100.00;101072.28;5570728;32;34515;-71
2022/11/29 14:42:23;;;;;;;;;;;;;;;2.28;100.00;101074.06;5569473;32;34508;-70
2022/11/29 14:45:28;;;;;;;;;;;;;;;2.27;100.00;101067.19;5570889;32;34576;-70
2022/11/29 14:48:35;;;;;;;;;;;;;;;2.16;100.00;101068.69;5569794;32;34967;-70
2022/11/29 14:52:00;;;;;;;;;;;;;;;2.10;100.00;101073.47;5570239;32;35109;-71
2022/11/29 14:55:16;;;;;;;;;;;;;;;2.11;100.00;101067.31;5570659;32;34570;-71
2022/11/29 14:58:21;;;;;;;;;;;;;;;2.19;100.00;101062.41;5570359;32;34542;-70
2022/11/29 15:01:26;;;;;;;;;;;;;;;2.36;100.00;101063.97;5570294;32;34877;-69
2022/11/29 15:04:37;;;;;;;;;;;;;;;2.13;100.00;101066.25;5570373;32;34885;-70
2022/11/29 15:07:44;;;;;;;;;;;;;;;2.29;100.00;101070.53;5570146;32;34458;-70
2022/11/29 15:10:52;;;;;;;;;;;;;;;2.32;100.00;101073.81;5570278;32;35132;-72
2022/11/29 15:14:02;;;;;;;;;;;;;;;2.35;100.00;101073.59;5569856;32;35057;-71
2022/11/29 15:17:16;;;;;;;;;;;;;;;2.42;100.00;101069.62;5569336;32;34516;-71
2022/11/29 15:20:36;;;;;;;;;;;;;;;2.35;100.00;101073.59;5568824;32;35625;-71
2022/11/29 15:23:41;;;;;;;;;;;;;;;2.24;100.00;101067.34;5570173;32;34575;-71
2022/11/29 15:27:16;;;;;;;;;;;;;;;2.16;100.00;101066.09;5570013;32;34585;-72
2022/11/29 15:30:31;;;;;;;;;;;;;;;2.12;100.00;101069.84;5569088;32;34827;-70
2022/11/29 15:33:38;;;;;;;;;;;;;;;2.19;100.00;101070.25;5568923;32;33395;-72
2022/11/29 15:36:42;;;;;;;;;;;;;;;2.13;100.00;101066.25;5569907;32;35208;-70
2022/11/29 15:39:59;;;;;;;;;;;;;;;2.23;100.00;101074.37;5570227;32;34442;-71
2022/11/29 15:43:18;;;;;;;;;;;;;;;2.09;100.00;101072.62;5570092;32;35197;-70
2022/11/29 15:46:24;;;;;;;;;;;;;;;2.08;100.00;101077.97;5569919;32;35130;-70
2022/11/29 15:49:30;;;;;;;;;;;;;;;2.07;100.00;101074.53;5569541;32;34552;-71
2022/11/29 15:52:36;;;;;;;;;;;;;;;2.14;100.00;101075.78;5569161;32;34525;-70
2022/11/29 15:55:41;;;;;;;;;;;;;;;2.15;100.00;101079.25;5570046;32;35227;-70
2022/11/29 15:58:51;;;;;;;;;;;;;;;2.10;100.00;101081.31;5569022;32;33424;-70
2022/11/29 16:01:58;;;;;;;;;;;;;;;2.07;100.00;101076.28;5569120;32;34452;-71
2022/11/29 16:05:08;;;;;;;;;;;;;;;2.07;100.00;101063.22;5556272;32;35182;-71
2022/11/29 16:08:16;;;;;;;;;;;;;;;2.10;100.00;101063.00;5568716;32;34137;-71
2022/11/29 16:11:23;;;;;;;;;;;;;;;2.03;100.00;101065.16;5569153;32;35826;-71
2022/11/29 16:14:28;;;;;;;;;;;;;;;2.03;100.00;101080.03;5569826;32;34578;-71
2022/11/29 16:17:35;;;;;;;;;;;;;;;2.05;100.00;101086.84;5569650;31;35160;-70
2022/11/29 16:20:57;;;;;;;;;;;;;;;2.18;100.00;101079.91;5562387;31;35087;-70
2022/11/29 16:24:20;;;;;;;;;;;;;;;2.17;100.00;101085.25;5574945;31;33866;-70
2022/11/29 16:27:26;;;;;;;;;;;;;;;2.05;100.00;101079.00;5575948;31;35162;-70
2022/11/29 16:30:34;;;;;;;;;;;;;;;2.03;100.00;101083.47;5576170;31;34983;-71
2022/11/29 16:33:38;;;;;;;;;;;;;;;1.98;100.00;101080.34;5589258;31;35097;-70